Time;durP1;ratioP1;P1;durP2;ratioP2;P2;SDS_P1;SDS_P2;PMS_P1;PMS_P2;Temp;Humidity;BMP_temperature;BMP_pressure;BME280_temperature;BME280_humidity;BME280_pressure;Samples;Min_cycle;Max_cycle;Signal;HPM_P1;HPM_P2
2022/06/26 00:00:33;;;;;;;4.40;1.80;;;;;;;17.44;100.00;95957.63;4997328;28;20050;-79
2022/06/26 00:02:59;;;;;;;3.17;1.20;;;;;;;17.43;100.00;95961.28;4995325;28;21070;-78
2022/06/26 00:05:25;;;;;;;3.67;1.80;;;;;;;17.33;100.00;95963.56;4999666;28;20049;-77
2022/06/26 00:07:50;;;;;;;4.22;1.80;;;;;;;17.31;100.00;95962.97;4999260;28;20022;-78
2022/06/26 00:10:16;;;;;;;2.08;1.35;;;;;;;17.32;100.00;95969.13;5001868;28;20190;-78
2022/06/26 00:12:42;;;;;;;5.65;1.50;;;;;;;17.33;100.00;95976.06;5002020;28;20037;-78
2022/06/26 00:15:08;;;;;;;1.80;1.05;;;;;;;17.38;100.00;95978.91;5001000;28;20038;-79
2022/06/26 00:17:34;;;;;;;1.88;1.20;;;;;;;17.32;100.00;95977.09;4999147;28;20119;-79
2022/06/26 00:20:00;;;;;;;2.47;1.45;;;;;;;17.37;100.00;95980.75;4998920;28;20136;-79
2022/06/26 00:22:26;;;;;;;1.98;1.27;;;;;;;17.40;100.00;95976.84;4998047;28;20034;-79
2022/06/26 00:24:52;;;;;;;4.10;1.17;;;;;;;17.39;100.00;95986.66;4997933;28;20680;-79
2022/06/26 00:27:19;;;;;;;3.13;1.30;;;;;;;17.16;100.00;95989.78;4998401;28;20033;-78
2022/06/26 00:29:45;;;;;;;4.30;1.50;;;;;;;16.99;100.00;95993.88;5003865;28;20034;-78
2022/06/26 00:32:12;;;;;;;5.05;1.40;;;;;;;16.95;100.00;95990.81;4982381;28;20038;-79
2022/06/26 00:34:37;;;;;;;3.00;1.50;;;;;;;16.96;100.00;95988.97;4998671;28;20580;-78
2022/06/26 00:37:03;;;;;;;3.45;1.60;;;;;;;17.03;100.00;95996.94;4999478;28;20041;-78
2022/06/26 00:39:29;;;;;;;3.25;1.50;;;;;;;17.01;100.00;96002.47;4986240;28;20121;-78
2022/06/26 00:41:55;;;;;;;3.00;1.42;;;;;;;17.03;100.00;95997.75;4995482;28;20087;-79
2022/06/26 00:44:23;;;;;;;2.78;1.65;;;;;;;17.03;100.00;95999.59;4992556;28;20049;-78
2022/06/26 00:46:50;;;;;;;2.78;1.30;;;;;;;17.05;100.00;95995.72;4996179;28;20072;-78
2022/06/26 00:49:16;;;;;;;4.15;1.52;;;;;;;17.10;100.00;95989.78;4995114;28;20026;-79
2022/06/26 00:51:50;;;;;;;2.83;1.35;;;;;;;16.98;100.00;95986.13;4993983;28;20149;-78
2022/06/26 00:54:17;;;;;;;3.35;1.60;;;;;;;17.00;100.00;95987.56;4990042;28;20766;-77
2022/06/26 00:56:44;;;;;;;3.10;1.38;;;;;;;16.97;100.00;95987.97;4975189;28;20819;-78
2022/06/26 00:59:10;;;;;;;2.53;1.55;;;;;;;16.94;100.00;95991.03;4993740;28;20070;-78
2022/06/26 01:01:36;;;;;;;1.90;1.20;;;;;;;16.94;100.00;95989.19;4990706;28;20050;-78
2022/06/26 01:04:03;;;;;;;4.72;1.50;;;;;;;16.94;100.00;95994.50;4994416;28;20034;-78
2022/06/26 01:06:31;;;;;;;2.42;1.40;;;;;;;17.01;100.00;95994.50;4982243;28;20405;-78
2022/06/26 01:08:57;;;;;;;4.95;1.80;;;;;;;17.04;100.00;95991.44;4996199;28;20041;-78
2022/06/26 01:11:27;;;;;;;3.33;1.40;;;;;;;17.01;100.00;95996.34;4979651;28;20085;-78
2022/06/26 01:13:56;;;;;;;4.22;1.58;;;;;;;16.95;100.00;95993.47;4995166;28;20034;-78
2022/06/26 01:16:22;;;;;;;2.53;1.17;;;;;;;16.96;100.00;95991.63;4997065;28;20041;-79
2022/06/26 01:18:51;;;;;;;2.97;1.50;;;;;;;16.95;100.00;95992.66;4977968;28;20062;-78
2022/06/26 01:21:19;;;;;;;2.50;1.25;;;;;;;16.91;100.00;95991.44;4997449;28;20040;-78
2022/06/26 01:23:46;;;;;;;2.58;1.27;;;;;;;16.99;100.00;95993.06;4985358;28;20031;-78
2022/06/26 01:26:12;;;;;;;1.35;0.90;;;;;;;16.98;100.00;95991.44;4981628;28;20034;-78
2022/06/26 01:28:38;;;;;;;2.75;1.20;;;;;;;16.94;100.00;95986.53;4982567;28;20031;-78
2022/06/26 01:31:04;;;;;;;2.80;1.38;;;;;;;16.87;100.00;95984.91;4983830;28;20092;-79
2022/06/26 01:33:30;;;;;;;6.72;1.20;;;;;;;16.78;100.00;95984.28;4979576;28;20030;-78
2022/06/26 01:35:56;;;;;;;2.78;1.38;;;;;;;16.91;100.00;95988.78;4998286;28;20399;-78
2022/06/26 01:38:23;;;;;;;1.88;1.20;;;;;;;16.88;100.00;95990.00;4998833;28;20041;-78
2022/06/26 01:40:53;;;;;;;3.65;1.40;;;;;;;16.84;100.00;95988.78;4996288;28;20097;-78
2022/06/26 01:43:28;;;;;;;2.00;1.30;;;;;;;16.87;100.00;95985.72;4984067;28;20035;-78
2022/06/26 01:45:55;;;;;;;1.70;1.10;;;;;;;16.89;100.00;95991.63;4998872;28;20045;-78
2022/06/26 01:48:29;;;;;;;3.42;1.25;;;;;;;16.86;100.00;95991.22;4986587;28;20057;-79
2022/06/26 01:50:57;;;;;;;2.47;1.05;;;;;;;16.72;100.00;96003.66;4982808;28;20034;-78
2022/06/26 01:53:24;;;;;;;2.72;1.40;;;;;;;16.50;100.00;95995.06;4998466;28;20045;-78
2022/06/26 01:55:51;;;;;;;2.90;1.15;;;;;;;16.51;100.00;95996.69;4994637;28;20090;-78
2022/06/26 01:58:26;;;;;;;3.10;1.33;;;;;;;16.53;100.00;95997.28;5001062;28;20061;-78
2022/06/26 02:00:55;;;;;;;2.17;1.60;;;;;;;16.43;100.00;95989.75;5001324;28;20038;-78
2022/06/26 02:03:25;;;;;;;2.17;1.50;;;;;;;16.41;100.00;95990.97;5011226;28;20049;-78
2022/06/26 02:05:51;;;;;;;2.58;1.35;;;;;;;16.47;100.00;95990.16;4986929;28;20026;-78
2022/06/26 02:08:19;;;;;;;2.60;1.40;;;;;;;16.50;100.00;95992.41;5006622;28;20068;-78
2022/06/26 02:13:36;;;;;;;1.55;1.13;;;;;;;16.43;100.00;95996.88;5006429;28;20026;-79
2022/06/26 02:16:07;;;;;;;1.92;1.20;;;;;;;16.33;100.00;96012.34;5006394;28;20038;-78
2022/06/26 02:18:34;;;;;;;3.45;1.42;;;;;;;16.29;100.00;96024.41;4989125;28;20034;-79
2022/06/26 02:21:00;;;;;;;3.88;1.40;;;;;;;16.54;100.00;96019.38;4985685;28;20038;-78
2022/06/26 02:23:27;;;;;;;1.85;1.15;;;;;;;16.53;100.00;96026.50;5002040;28;20038;-79
2022/06/26 02:25:53;;;;;;;1.77;1.23;;;;;;;16.47;100.00;96032.63;5004659;28;20031;-78
2022/06/26 02:28:19;;;;;;;2.90;1.52;;;;;;;16.41;100.00;96044.03;5005744;28;20116;-78
2022/06/26 02:30:46;;;;;;;2.10;1.30;;;;;;;16.23;100.00;96037.47;5002945;28;20037;-77
2022/06/26 02:33:12;;;;;;;2.90;1.50;;;;;;;16.04;100.00;96032.91;5004814;28;20042;-78
2022/06/26 02:35:38;;;;;;;3.85;1.50;;;;;;;15.93;100.00;96033.47;4988376;28;20042;-78
2022/06/26 02:38:04;;;;;;;4.20;1.55;;;;;;;15.86;100.00;96029.94;5003575;28;20030;-78
2022/06/26 02:40:31;;;;;;;3.13;1.52;;;;;;;15.84;100.00;96037.28;4987841;28;20031;-78
2022/06/26 02:42:58;;;;;;;4.55;1.63;;;;;;;15.83;100.00;96030.34;5002595;28;20094;-78
2022/06/26 02:45:25;;;;;;;3.47;1.83;;;;;;;15.86;100.00;96035.25;5003575;28;20034;-78
2022/06/26 02:47:51;;;;;;;6.32;1.70;;;;;;;15.76;100.00;96041.75;4985111;28;20042;-78
2022/06/26 02:50:17;;;;;;;4.13;2.00;;;;;;;15.41;100.00;96040.88;5002627;28;20026;-78
2022/06/26 02:52:43;;;;;;;4.13;1.85;;;;;;;15.11;100.00;96042.91;4986097;28;20094;-78
2022/06/26 02:55:11;;;;;;;3.70;1.50;;;;;;;14.91;100.00;96032.16;5001901;28;20055;-78
2022/06/26 02:57:40;;;;;;;2.77;1.80;;;;;;;14.82;100.00;96034.16;4999548;28;20038;-78
2022/06/26 03:00:08;;;;;;;8.52;2.00;;;;;;;14.82;100.00;96038.59;4979459;28;20053;-78
2022/06/26 03:02:37;;;;;;;3.58;2.00;;;;;;;14.75;100.00;96027.13;4998081;28;20185;-78
2022/06/26 03:05:08;;;;;;;5.03;2.10;;;;;;;14.73;100.00;96027.34;4980882;28;20035;-78
2022/06/26 03:07:34;;;;;;;5.27;2.30;;;;;;;14.82;100.00;96033.31;4990101;28;20030;-78
2022/06/26 03:10:01;;;;;;;5.10;2.40;;;;;;;14.90;100.00;96027.06;4997140;28;20098;-78
2022/06/26 03:12:27;;;;;;;6.93;2.20;;;;;;;14.88;100.00;96031.72;4997753;28;20510;-78
2022/06/26 03:14:52;;;;;;;5.13;2.00;;;;;;;14.97;100.00;96030.59;4998911;28;20034;-77
2022/06/26 03:17:19;;;;;;;4.03;2.00;;;;;;;15.05;100.00;96039.19;4999346;28;20049;-78
2022/06/26 03:19:46;;;;;;;4.47;2.07;;;;;;;15.20;100.00;96030.38;4995558;28;20026;-78
2022/06/26 03:22:12;;;;;;;3.57;1.83;;;;;;;15.25;100.00;96023.44;4986823;28;20038;-78
2022/06/26 03:24:38;;;;;;;2.73;1.90;;;;;;;15.39;100.00;96029.69;4985560;28;20097;-78
2022/06/26 03:27:05;;;;;;;2.77;1.80;;;;;;;15.44;100.00;96031.75;5002871;28;20545;-78
2022/06/26 03:29:31;;;;;;;3.53;1.80;;;;;;;15.54;100.00;96021.59;5004232;28;20557;-79
2022/06/26 03:31:57;;;;;;;2.77;2.10;;;;;;;15.52;100.00;96035.03;4989241;28;20022;-79
2022/06/26 03:34:24;;;;;;;3.00;1.77;;;;;;;15.57;100.00;96050.38;4986288;28;20026;-78
2022/06/26 03:36:49;;;;;;;5.67;2.10;;;;;;;15.35;100.00;96059.41;4988307;28;20035;-79
2022/06/26 03:39:16;;;;;;;5.70;1.97;;;;;;;15.48;100.00;96054.19;4987596;28;20074;-79
2022/06/26 03:41:57;;;;;;;4.97;2.20;;;;;;;15.60;100.00;96070.38;4986857;28;20033;-79
2022/06/26 03:44:26;;;;;;;4.47;2.00;;;;;;;15.39;100.00;96065.94;4986997;28;20045;-78
2022/06/26 03:46:52;;;;;;;3.93;1.93;;;;;;;15.66;100.00;96069.56;4987517;28;20043;-79
2022/06/26 03:49:18;;;;;;;4.33;2.17;;;;;;;15.61;100.00;96061.41;4987651;28;20026;-78
2022/06/26 03:51:46;;;;;;;5.33;2.23;;;;;;;15.77;100.00;96069.91;4979671;28;20117;-78
2022/06/26 03:54:13;;;;;;;8.97;2.70;;;;;;;15.85;100.00;96062.78;4986713;28;20060;-78
2022/06/26 03:56:39;;;;;;;4.43;1.87;;;;;;;15.90;100.00;96065.69;4970864;28;20045;-79
2022/06/26 03:59:05;;;;;;;4.18;2.28;;;;;;;15.88;100.00;96059.75;4981971;28;20108;-79
2022/06/26 04:01:34;;;;;;;3.83;1.60;;;;;;;16.00;100.00;96058.19;4972927;28;20054;-79
2022/06/26 04:04:00;;;;;;;8.20;2.03;;;;;;;16.07;100.00;96053.72;4986245;28;20042;-81
2022/06/26 04:06:26;;;;;;;5.50;1.95;;;;;;;16.15;100.00;96047.41;4985709;28;20033;-79
2022/06/26 04:08:52;;;;;;;3.33;2.05;;;;;;;16.22;100.00;96049.06;4970607;28;20030;-79
2022/06/26 04:11:18;;;;;;;2.90;1.73;;;;;;;16.35;100.00;96055.44;4987089;28;20034;-78
2022/06/26 04:13:53;;;;;;;6.25;2.03;;;;;;;16.47;100.00;96057.31;4987097;28;20026;-79
2022/06/26 04:16:19;;;;;;;4.35;2.08;;;;;;;16.60;100.00;96056.53;4987488;28;20049;-79
2022/06/26 04:18:47;;;;;;;3.65;1.80;;;;;;;16.73;100.00;96048.59;4987053;28;20169;-79
2022/06/26 04:21:13;;;;;;;3.33;1.98;;;;;;;16.74;100.00;96049.41;4986844;28;20026;-78
2022/06/26 04:23:40;;;;;;;3.28;1.73;;;;;;;16.95;100.00;96048.44;4986194;28;20123;-78
2022/06/26 04:26:16;;;;;;;5.32;2.08;;;;;;;17.04;100.00;96044.56;4986784;28;20077;-79
2022/06/26 04:28:41;;;;;;;2.90;1.70;;;;;;;17.04;100.00;96039.25;4986898;28;20037;-79
2022/06/26 04:31:08;;;;;;;2.47;1.52;;;;;;;17.13;100.00;96032.69;4987774;28;20034;-79
2022/06/26 04:33:35;;;;;;;5.55;2.58;;;;;;;17.25;100.00;96032.09;4978335;28;20109;-79
2022/06/26 04:36:05;;;;;;;2.03;1.45;;;;;;;17.33;100.00;96026.56;4987036;28;20403;-79
2022/06/26 04:38:31;;;;;;;2.22;1.30;;;;;;;17.40;100.00;96027.34;4986488;28;20046;-80
2022/06/26 04:40:58;;;;;;;4.18;1.80;;;;;;;17.22;100.00;96030.66;4970523;28;20575;-79
2022/06/26 04:43:23;;;;;;;4.15;1.77;;;;;;;17.11;100.00;96034.75;4985691;28;20030;-79
2022/06/26 04:45:49;;;;;;;4.95;1.80;;;;;;;17.09;100.00;96031.47;4986362;28;20149;-79
2022/06/26 04:48:17;;;;;;;6.45;2.50;;;;;;;17.25;100.00;96040.88;4986985;28;20041;-79
2022/06/26 04:50:43;;;;;;;4.07;1.58;;;;;;;17.37;100.00;96046.38;4970162;28;20053;-79
2022/06/26 04:53:09;;;;;;;2.35;1.42;;;;;;;17.52;100.00;96035.53;4984045;28;20076;-80
2022/06/26 04:55:36;;;;;;;5.75;1.83;;;;;;;17.69;100.00;96044.69;4970011;28;20034;-79
2022/06/26 04:58:02;;;;;;;5.35;2.03;;;;;;;17.82;100.00;96051.84;4970651;28;20149;-80
2022/06/26 05:00:27;;;;;;;3.08;1.80;;;;;;;17.99;100.00;96052.22;4986195;28;20116;-78
2022/06/26 05:03:12;;;;;;;3.50;1.90;;;;;;;18.17;100.00;96054.19;4986037;28;20658;-80
2022/06/26 05:06:10;;;;;;;5.22;1.75;;;;;;;18.38;100.00;96062.69;4992128;28;20046;-79
2022/06/26 05:08:48;;;;;;;3.03;1.80;;;;;;;18.51;100.00;96069.81;4982664;28;20595;-78
2022/06/26 05:11:16;;;;;;;3.50;1.75;;;;;;;18.48;100.00;96072.91;4971157;28;20038;-78
2022/06/26 05:13:49;;;;;;;2.97;1.67;;;;;;;18.31;100.00;96075.22;4978512;28;20049;-79
2022/06/26 05:16:35;;;;;;;4.68;1.90;;;;;;;18.27;100.00;96075.84;4988275;28;20416;-78
2022/06/26 05:19:02;;;;;;;3.78;2.03;;;;;;;18.06;100.00;96079.63;4986379;28;20041;-79
2022/06/26 05:21:29;;;;;;;25.50;19.77;;;;;;;18.10;100.00;96073.66;4990655;28;20804;-80
2022/06/26 05:23:55;;;;;;;5.22;2.53;;;;;;;18.02;100.00;96071.22;4994238;28;20499;-79
2022/06/26 05:26:22;;;;;;;8.90;6.30;;;;;;;18.21;100.00;96071.34;4991863;28;20046;-79
2022/06/26 05:28:52;;;;;;;3.97;1.92;;;;;;;18.47;100.00;96075.75;4980472;28;20041;-80
2022/06/26 05:31:18;;;;;;;3.65;2.13;;;;;;;18.70;100.00;96069.91;4996400;28;20053;-78
2022/06/26 05:33:45;;;;;;;10.77;6.35;;;;;;;18.92;100.00;96065.91;4998550;28;20555;-78
2022/06/26 05:36:11;;;;;;;4.50;1.88;;;;;;;18.93;100.00;96066.72;4977120;28;20046;-80
2022/06/26 05:38:38;;;;;;;2.92;1.58;;;;;;;19.04;100.00;96068.69;4997816;28;20064;-80
2022/06/26 05:41:05;;;;;;;3.28;1.67;;;;;;;18.90;100.00;96070.63;4979625;28;20102;-80
2022/06/26 05:43:34;;;;;;;2.42;1.50;;;;;;;19.32;100.00;96073.59;4995992;28;20026;-80
2022/06/26 05:46:00;;;;;;;4.63;1.70;;;;;;;19.45;100.00;96078.81;4998323;28;20105;-80
2022/06/26 05:48:35;;;;;;;2.50;1.60;;;;;;;19.78;100.00;96075.03;4994070;28;20057;-80
2022/06/26 05:51:30;;;;;;;4.38;1.90;;;;;;;20.05;100.00;96072.09;5010634;28;20038;-78
2022/06/26 05:54:06;;;;;;;2.45;1.55;;;;;;;20.37;100.00;96073.56;4995988;28;20026;-80
2022/06/26 05:56:50;;;;;;;2.70;1.50;;;;;;;20.55;100.00;96069.25;5003999;28;20030;-80
2022/06/26 05:59:24;;;;;;;2.88;1.52;;;;;;;20.65;100.00;96077.53;5000010;28;20026;-79
2022/06/26 06:02:04;;;;;;;3.00;1.45;;;;;;;20.94;100.00;96074.03;4983790;28;20488;-80
2022/06/26 06:04:30;;;;;;;5.97;2.85;;;;;;;21.05;100.00;96072.44;5000330;28;20158;-79
2022/06/26 06:07:00;;;;;;;3.28;1.85;;;;;;;21.07;100.00;96080.25;5001858;28;20085;-80
2022/06/26 06:09:27;;;;;;;2.92;1.60;;;;;;;21.38;100.00;96077.28;4978153;28;20112;-79
2022/06/26 06:11:54;;;;;;;2.42;1.52;;;;;;;21.67;100.00;96079.31;4998256;28;20030;-80
2022/06/26 06:14:20;;;;;;;2.15;1.40;;;;;;;22.03;97.35;96078.19;4998302;28;20049;-80
2022/06/26 06:16:46;;;;;;;4.43;2.10;;;;;;;21.65;99.23;96079.53;4996189;28;20093;-81
2022/06/26 06:19:11;;;;;;;4.07;1.90;;;;;;;22.57;93.90;96070.78;4997205;28;20041;-79
2022/06/26 06:21:41;;;;;;;6.22;1.60;;;;;;;22.72;93.33;96068.38;4983291;28;20621;-79
2022/06/26 06:24:07;;;;;;;4.85;2.05;;;;;;;22.94;90.87;96068.56;4995159;28;20065;-80
2022/06/26 06:26:34;;;;;;;2.70;1.92;;;;;;;22.47;91.52;96076.75;4980621;28;20112;-80
2022/06/26 06:29:17;;;;;;;2.88;1.58;;;;;;;22.98;89.12;96064.31;4996221;28;20034;-81
2022/06/26 06:31:42;;;;;;;4.40;1.80;;;;;;;23.74;82.02;96066.63;4985622;28;20038;-81
2022/06/26 06:34:08;;;;;;;4.70;1.63;;;;;;;23.95;80.27;96079.28;4996534;28;20030;-81
2022/06/26 06:36:34;;;;;;;3.63;1.50;;;;;;;23.68;85.63;96081.06;4988828;28;20030;-81
2022/06/26 06:39:03;;;;;;;4.60;1.38;;;;;;;23.36;88.58;96091.50;5001410;28;20038;-81
2022/06/26 06:41:29;;;;;;;2.95;1.55;;;;;;;23.45;90.94;96090.06;4977257;28;20030;-80
2022/06/26 06:44:08;;;;;;;3.08;1.75;;;;;;;24.22;84.05;96083.94;4983850;28;20480;-80
2022/06/26 06:46:53;;;;;;;3.50;1.80;;;;;;;24.99;75.58;96074.91;4990992;28;20582;-82
2022/06/26 06:49:26;;;;;;;2.08;1.58;;;;;;;25.25;74.69;96072.44;4979451;28;20026;-81
2022/06/26 06:51:53;;;;;;;2.15;1.45;;;;;;;24.33;79.44;96080.31;4977816;28;20045;-81
2022/06/26 06:54:20;;;;;;;2.83;1.58;;;;;;;24.22;82.61;96076.69;4992386;28;20089;-81
2022/06/26 06:56:46;;;;;;;4.03;1.50;;;;;;;25.40;74.09;96083.38;4993166;28;20061;-82
2022/06/26 06:59:13;;;;;;;2.20;1.55;;;;;;;25.41;71.12;96079.59;4999301;28;20397;-81
2022/06/26 07:01:39;;;;;;;2.53;1.70;;;;;;;25.85;67.80;96084.78;4995711;28;20034;-81
2022/06/26 07:04:07;;;;;;;2.97;1.65;;;;;;;25.82;70.14;96082.59;4979144;28;20519;-81
2022/06/26 07:06:33;;;;;;;7.22;3.22;;;;;;;26.35;69.54;96083.44;5010360;28;20068;-81
2022/06/26 07:08:59;;;;;;;4.45;2.28;;;;;;;26.43;68.65;96074.88;4993340;28;20081;-80
2022/06/26 07:11:29;;;;;;;3.13;1.92;;;;;;;27.12;63.83;96068.31;4996326;28;20102;-81
2022/06/26 07:13:55;;;;;;;2.55;1.30;;;;;;;27.53;64.01;96064.84;4993128;28;20132;-80
2022/06/26 07:16:20;;;;;;;1.98;1.40;;;;;;;27.65;61.13;96062.69;4994723;28;20033;-79
2022/06/26 07:18:46;;;;;;;2.47;1.52;;;;;;;27.55;60.45;96068.91;4994856;28;20469;-79
2022/06/26 07:21:13;;;;;;;2.47;1.50;;;;;;;28.17;56.22;96069.66;4989078;28;20034;-79
2022/06/26 07:23:40;;;;;;;2.65;1.65;;;;;;;28.29;58.21;96062.03;4988708;28;20077;-81
2022/06/26 07:26:29;;;;;;;2.53;1.67;;;;;;;27.49;56.87;96067.28;4997968;28;20117;-80
2022/06/26 07:28:56;;;;;;;3.45;1.63;;;;;;;28.64;54.56;96054.88;4997954;28;20062;-80
2022/06/26 07:31:24;;;;;;;2.97;1.40;;;;;;;28.53;55.31;96059.50;4998554;28;20030;-82
2022/06/26 07:36:35;;;;;;;2.25;1.50;;;;;;;26.61;60.27;96065.50;4997598;28;20031;-80
2022/06/26 07:39:01;;;;;;;2.35;1.38;;;;;;;28.49;55.53;96050.34;4994866;28;20057;-80
2022/06/26 07:41:27;;;;;;;2.13;1.42;;;;;;;27.93;55.87;96054.03;4990639;28;20084;-80
2022/06/26 07:43:53;;;;;;;2.75;1.48;;;;;;;27.84;55.44;96050.25;4990239;28;20060;-78
2022/06/26 07:46:19;;;;;;;3.20;1.77;;;;;;;27.22;57.81;96051.34;4989878;28;20061;-79
2022/06/26 07:48:48;;;;;;;2.28;1.40;;;;;;;28.04;54.45;96040.50;4988829;28;20058;-79
2022/06/26 07:51:14;;;;;;;4.10;1.75;;;;;;;27.54;59.35;96045.69;4988102;28;20400;-80
2022/06/26 07:53:40;;;;;;;1.83;1.30;;;;;;;27.96;55.19;96058.06;4989922;28;20574;-80
2022/06/26 07:56:05;;;;;;;5.15;1.90;;;;;;;28.78;50.23;96057.78;4992404;28;20018;-79
2022/06/26 07:58:31;;;;;;;3.50;1.40;;;;;;;29.68;49.14;96054.72;4990849;28;20034;-80
2022/06/26 08:00:57;;;;;;;2.80;1.40;;;;;;;28.97;47.79;96049.78;4991860;28;20042;-80
2022/06/26 08:03:23;;;;;;;10.93;1.60;;;;;;;28.93;47.55;96054.16;4990020;28;20062;-80
2022/06/26 08:05:49;;;;;;;2.85;1.10;;;;;;;29.99;45.04;96052.50;4990007;28;20085;-79
2022/06/26 08:08:15;;;;;;;3.42;1.20;;;;;;;30.51;44.98;96055.47;4989104;28;20049;-79
2022/06/26 08:10:41;;;;;;;2.40;1.67;;;;;;;29.97;42.72;96057.41;4992161;28;20025;-79
2022/06/26 08:13:07;;;;;;;1.77;1.30;;;;;;;29.99;43.50;96049.00;4986237;28;20036;-79
2022/06/26 08:15:34;;;;;;;4.50;1.77;;;;;;;30.11;43.15;96043.16;4989547;28;20093;-80
2022/06/26 08:18:01;;;;;;;1.70;1.15;;;;;;;30.39;40.38;96047.75;4987683;28;20042;-79
2022/06/26 08:20:26;;;;;;;1.63;1.10;;;;;;;30.91;40.97;96045.19;4992631;28;20030;-80
2022/06/26 08:22:52;;;;;;;2.08;1.30;;;;;;;31.26;40.31;96043.84;4990739;28;20036;-79
2022/06/26 08:25:18;;;;;;;2.53;1.10;;;;;;;29.89;44.03;96049.09;4992046;28;20081;-79
2022/06/26 08:27:44;;;;;;;2.15;1.33;;;;;;;30.78;41.13;96049.44;4991790;28;20042;-79
2022/06/26 08:30:10;;;;;;;1.70;1.15;;;;;;;30.80;39.18;96052.66;4988725;28;20225;-80
2022/06/26 08:32:36;;;;;;;2.03;1.20;;;;;;;30.10;42.21;96047.78;4988480;28;20087;-80
2022/06/26 08:35:04;;;;;;;2.55;1.60;;;;;;;30.97;41.32;96047.53;4988021;28;20042;-81
2022/06/26 08:37:30;;;;;;;1.35;1.02;;;;;;;31.82;39.42;96047.53;4989262;28;20049;-81
2022/06/26 08:39:55;;;;;;;3.60;1.20;;;;;;;31.78;39.93;96041.91;4987476;28;20042;-81
2022/06/26 08:42:22;;;;;;;3.95;1.75;;;;;;;32.38;40.27;96046.50;4987385;28;20038;-80
2022/06/26 08:44:48;;;;;;;2.15;1.10;;;;;;;32.53;39.79;96040.78;4976624;28;20129;-79
2022/06/26 08:47:17;;;;;;;2.75;1.35;;;;;;;31.72;38.40;96047.72;4991326;28;20110;-80
2022/06/26 08:49:44;;;;;;;1.27;1.00;;;;;;;31.55;39.86;96048.28;4996496;28;20761;-79
2022/06/26 08:52:14;;;;;;;1.90;1.20;;;;;;;31.57;39.17;96052.34;4992498;28;20536;-78
2022/06/26 08:54:41;;;;;;;1.73;1.00;;;;;;;30.32;40.01;96057.34;4988735;28;20035;-80
2022/06/26 08:57:07;;;;;;;1.38;1.08;;;;;;;32.32;38.32;96050.44;4996775;28;20033;-80
2022/06/26 08:59:32;;;;;;;1.50;1.17;;;;;;;32.25;36.72;96052.75;4995028;28;20037;-81
2022/06/26 09:01:58;;;;;;;1.05;0.90;;;;;;;32.36;36.77;96048.72;5006002;28;20030;-80
2022/06/26 09:04:24;;;;;;;1.77;1.25;;;;;;;33.29;35.94;96041.00;5001393;28;20034;-80
2022/06/26 09:06:50;;;;;;;8.65;6.68;;;;;;;32.99;37.33;96049.88;4992167;28;20153;-81
2022/06/26 09:09:24;;;;;;;2.33;1.20;;;;;;;33.53;35.41;96050.81;4978179;28;20122;-79
2022/06/26 09:11:52;;;;;;;2.97;1.23;;;;;;;33.35;35.46;96049.88;4990802;28;20100;-80
2022/06/26 09:14:20;;;;;;;2.53;1.00;;;;;;;32.96;36.69;96053.22;4975295;28;20034;-80
2022/06/26 09:16:48;;;;;;;1.38;0.90;;;;;;;32.61;36.88;96058.31;4978297;28;20050;-80
2022/06/26 09:19:20;;;;;;;1.63;1.00;;;;;;;32.91;35.80;96059.56;4993175;28;20906;-82
2022/06/26 09:21:47;;;;;;;1.70;1.05;;;;;;;33.72;33.76;96067.78;5012123;28;20041;-81
2022/06/26 09:24:17;;;;;;;1.55;1.17;;;;;;;33.08;35.33;96065.19;4994282;28;20405;-82
2022/06/26 09:26:43;;;;;;;1.25;0.95;;;;;;;32.80;35.66;96063.66;5011233;28;20108;-81
2022/06/26 09:29:15;;;;;;;1.17;0.90;;;;;;;32.43;35.72;96065.50;4993186;28;20026;-81
2022/06/26 09:31:42;;;;;;;3.63;1.30;;;;;;;31.78;38.21;96060.94;4992883;28;20030;-82
2022/06/26 09:34:21;;;;;;;1.92;1.05;;;;;;;31.84;37.54;96065.19;4996548;28;20465;-82
2022/06/26 09:37:01;;;;;;;3.28;1.15;;;;;;;31.83;37.57;96058.13;5002248;28;20073;-81
2022/06/26 09:39:29;;;;;;;1.90;1.00;;;;;;;32.11;38.00;96053.56;4997577;28;20034;-82
2022/06/26 09:41:55;;;;;;;1.90;1.08;;;;;;;31.85;39.17;96055.09;4980787;28;20046;-81
2022/06/26 09:44:22;;;;;;;2.28;1.10;;;;;;;31.42;38.43;96052.56;4985306;28;20041;-80
2022/06/26 09:46:48;;;;;;;1.45;1.08;;;;;;;33.12;35.67;96050.97;4996731;28;20033;-81
2022/06/26 09:49:16;;;;;;;4.47;0.93;;;;;;;33.92;34.91;96043.81;4995107;28;20830;-80
2022/06/26 09:51:43;;;;;;;3.28;1.48;;;;;;;34.37;33.49;96047.22;4979097;28;20130;-80
2022/06/26 09:54:09;;;;;;;1.92;0.90;;;;;;;34.42;33.95;96047.09;4993551;28;20531;-82
2022/06/26 09:56:35;;;;;;;2.30;1.00;;;;;;;34.50;34.04;96032.66;4994511;28;20717;-81
2022/06/26 09:59:02;;;;;;;2.25;1.10;;;;;;;32.93;35.08;96038.28;5009113;28;20045;-80
2022/06/26 10:07:05;;;;;;;1.70;1.20;;;;;;;34.22;34.75;96037.56;5000666;28;20043;-80
2022/06/26 10:09:34;;;;;;;1.25;1.15;;;;;;;32.91;35.13;96035.06;4984622;28;20033;-82
2022/06/26 10:12:02;;;;;;;1.42;0.90;;;;;;;33.53;35.18;96032.53;4979871;28;20038;-82
2022/06/26 10:14:37;;;;;;;0.93;0.85;;;;;;;34.45;33.10;96029.28;5000529;28;20061;-81
2022/06/26 10:17:19;;;;;;;1.92;1.10;;;;;;;34.25;33.28;96028.75;5001226;28;20042;-82
2022/06/26 10:19:50;;;;;;;1.73;1.00;;;;;;;34.55;32.38;96022.75;5001301;28;20046;-82
2022/06/26 10:22:16;;;;;;;1.05;0.90;;;;;;;34.12;33.60;96017.94;4982635;28;20487;-82
2022/06/26 10:25:00;;;;;;;0.98;0.82;;;;;;;35.16;32.52;96018.16;4993053;28;20034;-82
2022/06/26 10:27:35;;;;;;;1.40;1.10;;;;;;;34.91;32.71;96012.34;5003090;28;20065;-80
2022/06/26 10:30:04;;;;;;;1.95;0.90;;;;;;;34.65;33.54;96019.72;4979619;28;20038;-82
2022/06/26 10:32:29;;;;;;;1.52;1.00;;;;;;;34.99;31.63;96015.41;4998968;28;20034;-82
2022/06/26 10:34:56;;;;;;;1.77;1.10;;;;;;;35.37;32.54;96024.56;4980595;28;20045;-82
2022/06/26 10:37:22;;;;;;;2.78;1.02;;;;;;;35.14;31.76;96023.13;4995303;28;20397;-82
2022/06/26 10:39:51;;;;;;;1.35;0.85;;;;;;;34.87;31.36;96024.22;4987612;28;20030;-81
2022/06/26 10:45:12;;;;;;;1.63;1.20;;;;;;;35.17;31.71;96022.50;4999507;28;20042;-81
2022/06/26 10:47:52;;;;;;;2.88;1.48;;;;;;;35.39;31.46;96013.31;4991438;28;20040;-82
2022/06/26 10:50:41;;;;;;;2.60;0.90;;;;;;;35.18;32.02;96013.97;5000915;28;20104;-80
2022/06/26 10:53:24;;;;;;;1.40;0.80;;;;;;;35.98;30.04;96018.16;4980213;28;20050;-82
2022/06/26 10:55:53;;;;;;;1.42;0.98;;;;;;;35.25;30.65;96024.44;4984243;28;20041;-80
2022/06/26 10:58:27;;;;;;;1.55;1.00;;;;;;;35.14;31.86;96013.00;4997185;28;20034;-82
2022/06/26 11:00:57;;;;;;;1.05;0.80;;;;;;;35.43;32.11;96006.88;5000125;28;20066;-81
2022/06/26 11:03:24;;;;;;;0.77;0.68;;;;;;;34.95;32.05;96020.72;4987695;28;20066;-82
2022/06/26 11:05:59;;;;;;;2.10;1.13;;;;;;;35.09;31.83;96010.44;4979544;28;20038;-82
2022/06/26 11:08:27;;;;;;;1.05;0.80;;;;;;;35.31;30.80;95997.72;4999523;28;20041;-82
2022/06/26 11:10:57;;;;;;;0.93;0.70;;;;;;;35.22;30.51;95995.00;5001686;28;20022;-79
2022/06/26 11:13:23;;;;;;;1.63;1.20;;;;;;;34.28;32.51;96002.75;4981171;28;20069;-82
2022/06/26 11:15:49;;;;;;;1.45;1.00;;;;;;;35.46;31.38;95996.41;4998134;28;20018;-82
2022/06/26 11:18:15;;;;;;;2.05;1.00;;;;;;;35.14;32.21;96004.00;4980188;28;20053;-82
2022/06/26 11:20:47;;;;;;;2.58;1.10;;;;;;;35.64;30.61;95998.00;4998265;28;20033;-82
2022/06/26 11:23:15;;;;;;;1.45;1.17;;;;;;;36.32;30.44;95990.66;4979283;28;20042;-82
2022/06/26 11:25:42;;;;;;;1.58;0.90;;;;;;;34.94;31.23;95991.75;4994612;28;20035;-82
2022/06/26 11:28:09;;;;;;;2.67;1.23;;;;;;;34.93;31.59;95990.16;4998201;28;20022;-82
2022/06/26 11:30:39;;;;;;;2.28;1.10;;;;;;;34.46;33.03;95981.72;4993512;28;20447;-82
2022/06/26 11:33:07;;;;;;;2.80;1.02;;;;;;;35.66;31.57;95987.53;4979783;28;20061;-83
2022/06/26 11:35:36;;;;;;;1.92;1.10;;;;;;;33.71;33.95;95989.81;4994581;28;20034;-81
2022/06/26 11:38:13;;;;;;;2.05;1.00;;;;;;;36.30;29.61;95981.97;4978014;28;20038;-81
2022/06/26 11:40:44;;;;;;;1.85;1.13;;;;;;;35.09;31.31;95976.84;4988804;28;20093;-81
2022/06/26 11:43:12;;;;;;;1.50;1.00;;;;;;;36.83;28.94;95978.94;4976817;28;20038;-82
2022/06/26 11:45:40;;;;;;;0.90;0.90;;;;;;;37.28;28.62;95971.59;4977797;28;20041;-82
2022/06/26 11:48:13;;;;;;;1.00;0.90;;;;;;;37.20;28.45;95977.97;4977625;28;20042;-82